sensor_id;sensor_type;location;lat;lon;timestamp;pressure;altitude;pressure_sealevel;temperature;humidity
58686;BME280;44465;53.206;-6.106;2023-05-01T00:00:16;101644.78;;;19.26;52.22
58686;BME280;44465;53.206;-6.106;2023-05-01T00:02:46;101641.00;;;19.33;52.02
58686;BME280;44465;53.206;-6.106;2023-05-01T00:05:11;101609.47;;;19.17;51.86
58686;BME280;44465;53.206;-6.106;2023-05-01T00:07:37;101647.44;;;19.27;51.96
58686;BME280;44465;53.206;-6.106;2023-05-01T00:10:02;101639.69;;;19.19;52.35
58686;BME280;44465;53.206;-6.106;2023-05-01T00:12:28;101600.00;;;19.09;52.19
58686;BME280;44465;53.206;-6.106;2023-05-01T00:14:53;101655.47;;;19.26;52.43
58686;BME280;44465;53.206;-6.106;2023-05-01T00:17:19;101633.56;;;19.16;52.32
58686;BME280;44465;53.206;-6.106;2023-05-01T00:19:51;101630.66;;;19.24;52.24
58686;BME280;44465;53.206;-6.106;2023-05-01T00:22:16;101634.44;;;19.16;52.22
58686;BME280;44465;53.206;-6.106;2023-05-01T00:24:42;101661.81;;;19.23;52.42
58686;BME280;44465;53.206;-6.106;2023-05-01T00:27:07;101549.75;;;18.68;51.87
58686;BME280;44465;53.206;-6.106;2023-05-01T00:29:33;101588.84;;;18.96;51.80
58686;BME280;44465;53.206;-6.106;2023-05-01T00:31:58;101660.72;;;19.29;51.83
58686;BME280;44465;53.206;-6.106;2023-05-01T00:34:24;101659.13;;;19.23;52.05
58686;BME280;44465;53.206;-6.106;2023-05-01T00:36:49;101568.09;;;18.77;51.91
58686;BME280;44465;53.206;-6.106;2023-05-01T00:39:15;101654.47;;;19.30;51.71
58686;BME280;44465;53.206;-6.106;2023-05-01T00:41:44;101616.13;;;19.05;51.72
58686;BME280;44465;53.206;-6.106;2023-05-01T00:44:10;101651.63;;;19.34;51.48
58686;BME280;44465;53.206;-6.106;2023-05-01T00:46:35;101658.22;;;19.24;51.91
58686;BME280;44465;53.206;-6.106;2023-05-01T00:49:02;101651.03;;;19.26;51.59
58686;BME280;44465;53.206;-6.106;2023-05-01T00:51:28;101640.59;;;19.18;51.66
58686;BME280;44465;53.206;-6.106;2023-05-01T00:53:54;101631.25;;;19.05;51.80
58686;BME280;44465;53.206;-6.106;2023-05-01T00:56:20;101636.44;;;19.10;51.65
58686;BME280;44465;53.206;-6.106;2023-05-01T00:58:49;101655.47;;;19.26;51.59
58686;BME280;44465;53.206;-6.106;2023-05-01T01:01:21;101655.69;;;19.19;51.86
58686;BME280;44465;53.206;-6.106;2023-05-01T01:03:48;101642.75;;;19.34;51.02
58686;BME280;44465;53.206;-6.106;2023-05-01T01:12:31;101649.75;;;19.11;51.92
58686;BME280;44465;53.206;-6.106;2023-05-01T01:18:04;101606.06;;;18.85;51.63
58686;BME280;44465;53.206;-6.106;2023-05-01T01:26:10;101658.44;;;19.18;51.37
58686;BME280;44465;53.206;-6.106;2023-05-01T01:29:10;101632.41;;;18.98;51.34
58686;BME280;44465;53.206;-6.106;2023-05-01T01:34:39;101657.63;;;19.14;51.27
58686;BME280;44465;53.206;-6.106;2023-05-01T01:37:16;101619.13;;;18.96;51.58
58686;BME280;44465;53.206;-6.106;2023-05-01T01:39:59;101654.97;;;19.14;51.36
58686;BME280;44465;53.206;-6.106;2023-05-01T01:42:52;101656.69;;;19.17;51.64
58686;BME280;44465;53.206;-6.106;2023-05-01T01:45:21;101633.06;;;19.04;51.45
58686;BME280;44465;53.206;-6.106;2023-05-01T01:47:49;101637.72;;;18.98;51.47
58686;BME280;44465;53.206;-6.106;2023-05-01T01:50:16;101659.59;;;19.09;51.30
58686;BME280;44465;53.206;-6.106;2023-05-01T01:52:44;101646.03;;;19.15;51.38
58686;BME280;44465;53.206;-6.106;2023-05-01T01:55:12;101594.69;;;18.80;51.27
58686;BME280;44465;53.206;-6.106;2023-05-01T01:57:40;101689.69;;;19.14;51.66
58686;BME280;44465;53.206;-6.106;2023-05-01T02:00:11;101620.56;;;19.05;50.97
58686;BME280;44465;53.206;-6.106;2023-05-01T02:02:46;101634.75;;;19.07;50.90
58686;BME280;44465;53.206;-6.106;2023-05-01T02:05:15;101647.59;;;19.22;50.92
58686;BME280;44465;53.206;-6.106;2023-05-01T02:07:42;101634.66;;;19.10;50.79
58686;BME280;44465;53.206;-6.106;2023-05-01T02:10:11;101643.69;;;19.06;51.11
58686;BME280;44465;53.206;-6.106;2023-05-01T02:12:37;101644.00;;;18.97;51.45
58686;BME280;44465;53.206;-6.106;2023-05-01T02:15:05;101625.31;;;18.97;51.17
58686;BME280;44465;53.206;-6.106;2023-05-01T02:17:32;101639.00;;;19.13;51.07
58686;BME280;44465;53.206;-6.106;2023-05-01T02:20:00;101640.19;;;19.04;51.15
58686;BME280;44465;53.206;-6.106;2023-05-01T02:22:29;101633.53;;;18.89;51.38
58686;BME280;44465;53.206;-6.106;2023-05-01T02:24:57;101641.22;;;19.00;51.39
58686;BME280;44465;53.206;-6.106;2023-05-01T02:27:46;101645.66;;;19.01;51.31
58686;BME280;44465;53.206;-6.106;2023-05-01T02:30:13;101632.59;;;18.90;51.58
58686;BME280;44465;53.206;-6.106;2023-05-01T02:32:39;101636.09;;;18.92;51.40
58686;BME280;44465;53.206;-6.106;2023-05-01T02:35:05;101574.16;;;18.55;51.27
58686;BME280;44465;53.206;-6.106;2023-05-01T02:37:31;101648.34;;;18.99;51.43
58686;BME280;44465;53.206;-6.106;2023-05-01T02:39:58;101642.25;;;18.96;51.53
58686;BME280;44465;53.206;-6.106;2023-05-01T02:42:25;101570.56;;;18.56;51.34
58686;BME280;44465;53.206;-6.106;2023-05-01T02:45:04;101642.34;;;18.92;51.71
58686;BME280;44465;53.206;-6.106;2023-05-01T02:47:36;101624.81;;;18.84;51.63
58686;BME280;44465;53.206;-6.106;2023-05-01T02:50:03;101636.59;;;19.05;51.13
58686;BME280;44465;53.206;-6.106;2023-05-01T02:52:30;101645.09;;;19.18;50.80
58686;BME280;44465;53.206;-6.106;2023-05-01T02:55:16;101629.03;;;18.91;51.43
58686;BME280;44465;53.206;-6.106;2023-05-01T02:57:42;101652.72;;;19.02;51.25
58686;BME280;44465;53.206;-6.106;2023-05-01T03:00:08;101612.69;;;18.73;51.41
58686;BME280;44465;53.206;-6.106;2023-05-01T03:02:39;101596.00;;;18.67;51.23
58686;BME280;44465;53.206;-6.106;2023-05-01T03:05:05;101588.25;;;18.59;51.58
58686;BME280;44465;53.206;-6.106;2023-05-01T03:07:30;101644.00;;;18.97;51.54
58686;BME280;44465;53.206;-6.106;2023-05-01T03:10:00;101644.91;;;18.96;51.63
58686;BME280;44465;53.206;-6.106;2023-05-01T03:12:29;101661.75;;;18.98;51.78
58686;BME280;44465;53.206;-6.106;2023-05-01T03:14:54;101597.66;;;18.71;51.72
58686;BME280;44465;53.206;-6.106;2023-05-01T03:17:20;101649.31;;;18.97;51.45
58686;BME280;44465;53.206;-6.106;2023-05-01T03:19:46;101590.06;;;18.58;51.79
58686;BME280;44465;53.206;-6.106;2023-05-01T03:22:11;101594.19;;;18.69;51.87
58686;BME280;44465;53.206;-6.106;2023-05-01T03:24:37;101572.47;;;18.53;51.75
58686;BME280;44465;53.206;-6.106;2023-05-01T03:27:02;101632.97;;;18.79;51.86
58686;BME280;44465;53.206;-6.106;2023-05-01T03:29:28;101593.66;;;18.57;52.23
58686;BME280;44465;53.206;-6.106;2023-05-01T03:31:54;101597.81;;;18.66;52.31
58686;BME280;44465;53.206;-6.106;2023-05-01T03:34:21;101653.00;;;18.92;52.00
58686;BME280;44465;53.206;-6.106;2023-05-01T03:36:47;101635.25;;;18.91;52.08
58686;BME280;44465;53.206;-6.106;2023-05-01T03:39:13;101631.47;;;18.99;51.77
58686;BME280;44465;53.206;-6.106;2023-05-01T03:42:07;101610.88;;;18.74;52.20
58686;BME280;44465;53.206;-6.106;2023-05-01T03:44:38;101636.16;;;18.90;52.12
58686;BME280;44465;53.206;-6.106;2023-05-01T03:47:04;101596.75;;;18.72;52.03
58686;BME280;44465;53.206;-6.106;2023-05-01T03:49:30;101563.56;;;18.52;52.39
58686;BME280;44465;53.206;-6.106;2023-05-01T03:51:56;101574.13;;;18.57;52.27
58686;BME280;44465;53.206;-6.106;2023-05-01T03:54:21;101561.06;;;18.48;52.14
58686;BME280;44465;53.206;-6.106;2023-05-01T03:57:10;101628.88;;;18.97;51.95
58686;BME280;44465;53.206;-6.106;2023-05-01T03:59:36;101577.84;;;18.51;52.16
58686;BME280;44465;53.206;-6.106;2023-05-01T04:02:01;101569.84;;;18.51;52.21
58686;BME280;44465;53.206;-6.106;2023-05-01T04:04:30;101649.31;;;18.97;52.04
58686;BME280;44465;53.206;-6.106;2023-05-01T04:06:57;101584.91;;;18.52;52.41
58686;BME280;44465;53.206;-6.106;2023-05-01T04:09:22;101645.91;;;18.93;52.08
58686;BME280;44465;53.206;-6.106;2023-05-01T04:11:48;101602.94;;;18.72;51.81
58686;BME280;44465;53.206;-6.106;2023-05-01T04:14:15;101602.34;;;18.63;52.12
58686;BME280;44465;53.206;-6.106;2023-05-01T04:16:40;101672.22;;;19.04;51.95
58686;BME280;44465;53.206;-6.106;2023-05-01T04:19:06;101665.25;;;19.00;51.93
58686;BME280;44465;53.206;-6.106;2023-05-01T04:21:35;101646.66;;;18.97;51.79
58686;BME280;44465;53.206;-6.106;2023-05-01T04:24:01;101644.19;;;18.90;51.78
58686;BME280;44465;53.206;-6.106;2023-05-01T04:26:27;101640.59;;;18.91;51.95
58686;BME280;44465;53.206;-6.106;2023-05-01T04:28:53;101694.16;;;19.14;51.80
58686;BME280;44465;53.206;-6.106;2023-05-01T04:31:22;101657.66;;;18.86;51.73
58686;BME280;44465;53.206;-6.106;2023-05-01T04:33:48;101673.88;;;19.08;51.51
58686;BME280;44465;53.206;-6.106;2023-05-01T04:36:13;101669.03;;;18.92;51.78
58686;BME280;44465;53.206;-6.106;2023-05-01T04:38:39;101638.63;;;18.70;51.88
58686;BME280;44465;53.206;-6.106;2023-05-01T04:41:05;101670.03;;;18.88;51.81
58686;BME280;44465;53.206;-6.106;2023-05-01T04:43:31;101640.53;;;18.65;51.82
58686;BME280;44465;53.206;-6.106;2023-05-01T04:45:57;101681.47;;;18.92;51.91
58686;BME280;44465;53.206;-6.106;2023-05-01T04:48:23;101706.13;;;19.02;51.79
58686;BME280;44465;53.206;-6.106;2023-05-01T04:50:48;101644.94;;;18.67;51.91
58686;BME280;44465;53.206;-6.106;2023-05-01T04:53:15;101637.09;;;18.61;51.55
58686;BME280;44465;53.206;-6.106;2023-05-01T04:55:41;101642.53;;;18.58;51.57
58686;BME280;44465;53.206;-6.106;2023-05-01T04:58:12;101654.78;;;18.64;51.92
58686;BME280;44465;53.206;-6.106;2023-05-01T05:00:38;101642.13;;;18.42;51.93
58686;BME280;44465;53.206;-6.106;2023-05-01T05:03:06;101667.66;;;18.79;51.60
58686;BME280;44465;53.206;-6.106;2023-05-01T05:05:32;101633.56;;;18.60;51.86
58686;BME280;44465;53.206;-6.106;2023-05-01T05:07:58;101702.06;;;18.88;51.79
58686;BME280;44465;53.206;-6.106;2023-05-01T05:10:28;101721.41;;;18.97;51.81
58686;BME280;44465;53.206;-6.106;2023-05-01T05:13:14;101666.28;;;18.66;51.89
58686;BME280;44465;53.206;-6.106;2023-05-01T05:15:39;101694.25;;;18.82;52.05
58686;BME280;44465;53.206;-6.106;2023-05-01T05:18:08;101689.09;;;18.76;52.22
58686;BME280;44465;53.206;-6.106;2023-05-01T05:20:37;101682.16;;;18.70;52.38
58686;BME280;44465;53.206;-6.106;2023-05-01T05:23:02;101685.44;;;18.80;51.99
58686;BME280;44465;53.206;-6.106;2023-05-01T05:25:28;101678.63;;;18.70;51.76
58686;BME280;44465;53.206;-6.106;2023-05-01T05:27:53;101640.28;;;18.44;52.26
58686;BME280;44465;53.206;-6.106;2023-05-01T05:30:19;101706.66;;;18.83;52.38
58686;BME280;44465;53.206;-6.106;2023-05-01T05:32:45;101693.44;;;18.80;52.34
58686;BME280;44465;53.206;-6.106;2023-05-01T05:35:12;101702.16;;;18.85;52.01
58686;BME280;44465;53.206;-6.106;2023-05-01T05:37:37;101694.13;;;18.87;52.08
58686;BME280;44465;53.206;-6.106;2023-05-01T05:40:03;101690.75;;;18.80;52.14
58686;BME280;44465;53.206;-6.106;2023-05-01T05:42:36;101710.63;;;19.00;51.81
58686;BME280;44465;53.206;-6.106;2023-05-01T05:45:05;101703.06;;;18.84;52.28
58686;BME280;44465;53.206;-6.106;2023-05-01T05:47:31;101705.72;;;18.86;51.82
58686;BME280;44465;53.206;-6.106;2023-05-01T05:49:57;101674.44;;;18.61;51.83
58686;BME280;44465;53.206;-6.106;2023-05-01T05:52:22;101710.44;;;18.76;52.50
58686;BME280;44465;53.206;-6.106;2023-05-01T05:54:48;101724.34;;;18.87;52.51
58686;BME280;44465;53.206;-6.106;2023-05-01T05:57:14;101685.75;;;18.69;52.51
58686;BME280;44465;53.206;-6.106;2023-05-01T05:59:45;101714.72;;;18.82;52.47
58686;BME280;44465;53.206;-6.106;2023-05-01T06:02:12;101742.66;;;19.00;52.64
58686;BME280;44465;53.206;-6.106;2023-05-01T06:04:38;101696.19;;;18.77;52.46
58686;BME280;44465;53.206;-6.106;2023-05-01T06:07:04;101738.41;;;18.92;52.17
58686;BME280;44465;53.206;-6.106;2023-05-01T06:09:30;101747.09;;;19.01;52.34
58686;BME280;44465;53.206;-6.106;2023-05-01T06:11:56;101756.94;;;18.99;52.42
58686;BME280;44465;53.206;-6.106;2023-05-01T06:14:22;101760.53;;;18.98;52.80
58686;BME280;44465;53.206;-6.106;2023-05-01T06:16:48;101718.06;;;18.60;52.90
58686;BME280;44465;53.206;-6.106;2023-05-01T06:19:14;101753.59;;;18.90;52.78
58686;BME280;44465;53.206;-6.106;2023-05-01T06:21:40;101676.66;;;18.47;53.02
58686;BME280;44465;53.206;-6.106;2023-05-01T06:24:07;101708.28;;;18.59;52.97
58686;BME280;44465;53.206;-6.106;2023-05-01T06:26:45;101711.78;;;18.61;52.85
58686;BME280;44465;53.206;-6.106;2023-05-01T06:29:10;101715.16;;;18.68;53.07
58686;BME280;44465;53.206;-6.106;2023-05-01T06:31:36;101745.91;;;18.80;53.20
58686;BME280;44465;53.206;-6.106;2023-05-01T06:34:01;101729.09;;;18.78;52.93
58686;BME280;44465;53.206;-6.106;2023-05-01T06:36:33;101698.31;;;18.66;52.78
58686;BME280;44465;53.206;-6.106;2023-05-01T06:38:58;101714.31;;;18.66;53.09
58686;BME280;44465;53.206;-6.106;2023-05-01T06:41:24;101705.41;;;18.67;52.60
58686;BME280;44465;53.206;-6.106;2023-05-01T06:43:50;101675.72;;;18.49;52.76
58686;BME280;44465;53.206;-6.106;2023-05-01T06:46:16;101698.59;;;18.56;52.65
58686;BME280;44465;53.206;-6.106;2023-05-01T06:48:42;101726.38;;;18.79;52.71
58686;BME280;44465;53.206;-6.106;2023-05-01T06:51:07;101765.13;;;18.92;52.66
58686;BME280;44465;53.206;-6.106;2023-05-01T06:53:33;101770.28;;;18.99;52.29
58686;BME280;44465;53.206;-6.106;2023-05-01T06:55:59;101709.81;;;18.68;52.03
58686;BME280;44465;53.206;-6.106;2023-05-01T06:58:25;101773.00;;;18.97;52.52
58686;BME280;44465;53.206;-6.106;2023-05-01T07:00:52;101738.69;;;18.83;52.17
58686;BME280;44465;53.206;-6.106;2023-05-01T07:03:18;101733.00;;;18.66;52.37
58686;BME280;44465;53.206;-6.106;2023-05-01T07:05:43;101748.63;;;18.78;52.68
58686;BME280;44465;53.206;-6.106;2023-05-01T07:08:09;101798.63;;;19.03;52.80
58686;BME280;44465;53.206;-6.106;2023-05-01T07:10:34;101774.13;;;18.88;52.41
58686;BME280;44465;53.206;-6.106;2023-05-01T07:13:00;101703.78;;;18.61;52.25
58686;BME280;44465;53.206;-6.106;2023-05-01T07:15:25;101745.41;;;18.67;52.67
58686;BME280;44465;53.206;-6.106;2023-05-01T07:17:51;101712.84;;;18.55;52.35
58686;BME280;44465;53.206;-6.106;2023-05-01T07:20:17;101713.41;;;18.67;52.30
58686;BME280;44465;53.206;-6.106;2023-05-01T07:22:42;101803.03;;;19.04;52.16
58686;BME280;44465;53.206;-6.106;2023-05-01T07:25:08;101724.06;;;18.67;52.25
58686;BME280;44465;53.206;-6.106;2023-05-01T07:27:34;101735.03;;;18.57;52.47
58686;BME280;44465;53.206;-6.106;2023-05-01T07:29:59;101732.97;;;18.67;52.61
58686;BME280;44465;53.206;-6.106;2023-05-01T07:32:26;101721.78;;;18.54;52.58
58686;BME280;44465;53.206;-6.106;2023-05-01T07:34:51;101764.56;;;18.81;52.22
58686;BME280;44465;53.206;-6.106;2023-05-01T07:37:17;101754.53;;;18.89;52.11
58686;BME280;44465;53.206;-6.106;2023-05-01T07:39:43;101815.31;;;19.10;52.34
58686;BME280;44465;53.206;-6.106;2023-05-01T07:42:09;101760.16;;;18.80;52.15
58686;BME280;44465;53.206;-6.106;2023-05-01T07:44:34;101807.28;;;19.11;52.31
58686;BME280;44465;53.206;-6.106;2023-05-01T07:47:03;101749.47;;;18.80;52.17
58686;BME280;44465;53.206;-6.106;2023-05-01T07:49:34;101735.03;;;18.57;52.45
58686;BME280;44465;53.206;-6.106;2023-05-01T07:52:01;101732.41;;;18.56;52.24
58686;BME280;44465;53.206;-6.106;2023-05-01T07:54:26;101818.88;;;19.10;52.27
58686;BME280;44465;53.206;-6.106;2023-05-01T07:56:52;101772.56;;;18.81;52.27
58686;BME280;44465;53.206;-6.106;2023-05-01T07:59:17;101763.91;;;18.73;51.87
58686;BME280;44465;53.206;-6.106;2023-05-01T08:01:43;101776.88;;;18.85;52.05
58686;BME280;44465;53.206;-6.106;2023-05-01T08:04:09;101736.69;;;18.62;51.90
58686;BME280;44465;53.206;-6.106;2023-05-01T08:06:35;101754.97;;;18.74;51.90
58686;BME280;44465;53.206;-6.106;2023-05-01T08:09:00;101781.53;;;18.79;51.38
58686;BME280;44465;53.206;-6.106;2023-05-01T08:11:26;101760.44;;;18.71;51.84
58686;BME280;44465;53.206;-6.106;2023-05-01T08:13:51;101773.63;;;18.75;51.82
58686;BME280;44465;53.206;-6.106;2023-05-01T08:16:17;101776.38;;;18.72;51.91
58686;BME280;44465;53.206;-6.106;2023-05-01T08:18:44;101806.16;;;18.88;51.64
58686;BME280;44465;53.206;-6.106;2023-05-01T08:21:10;101840.59;;;18.98;51.54
58686;BME280;44465;53.206;-6.106;2023-05-01T08:23:36;101842.13;;;19.06;51.47
58686;BME280;44465;53.206;-6.106;2023-05-01T08:26:02;101796.13;;;18.97;51.29
58686;BME280;44465;53.206;-6.106;2023-05-01T08:28:28;101832.69;;;18.95;51.36
58686;BME280;44465;53.206;-6.106;2023-05-01T08:30:53;101758.97;;;18.60;51.44
58686;BME280;44465;53.206;-6.106;2023-05-01T08:33:19;101768.75;;;18.60;51.60
58686;BME280;44465;53.206;-6.106;2023-05-01T08:35:44;101757.00;;;18.67;51.28
58686;BME280;44465;53.206;-6.106;2023-05-01T08:38:11;101846.22;;;19.18;51.09
58686;BME280;44465;53.206;-6.106;2023-05-01T08:40:37;101859.91;;;19.08;51.30
58686;BME280;44465;53.206;-6.106;2023-05-01T08:43:03;101853.59;;;19.10;51.23
58686;BME280;44465;53.206;-6.106;2023-05-01T08:45:32;101766.47;;;18.46;51.06
58686;BME280;44465;53.206;-6.106;2023-05-01T08:48:05;101794.44;;;18.63;50.77
58686;BME280;44465;53.206;-6.106;2023-05-01T08:50:33;101827.84;;;18.76;51.30
58686;BME280;44465;53.206;-6.106;2023-05-01T08:53:01;101856.09;;;18.83;51.26
58686;BME280;44465;53.206;-6.106;2023-05-01T08:55:29;101867.53;;;18.88;51.25
58686;BME280;44465;53.206;-6.106;2023-05-01T08:57:57;101873.72;;;18.90;51.10
58686;BME280;44465;53.206;-6.106;2023-05-01T09:00:23;101810.84;;;18.50;50.96
58686;BME280;44465;53.206;-6.106;2023-05-01T09:02:50;101791.31;;;18.48;50.94
58686;BME280;44465;53.206;-6.106;2023-05-01T09:05:18;101872.56;;;18.99;50.35
58686;BME280;44465;53.206;-6.106;2023-05-01T09:07:45;101798.34;;;18.51;50.98
58686;BME280;44465;53.206;-6.106;2023-05-01T09:10:12;101817.19;;;18.76;50.82
58686;BME280;44465;53.206;-6.106;2023-05-01T09:12:39;101836.78;;;18.75;50.84
58686;BME280;44465;53.206;-6.106;2023-05-01T09:15:06;101854.13;;;18.91;50.71
58686;BME280;44465;53.206;-6.106;2023-05-01T09:17:32;101861.41;;;18.85;50.51
58686;BME280;44465;53.206;-6.106;2023-05-01T09:20:01;101834.38;;;18.66;50.71
58686;BME280;44465;53.206;-6.106;2023-05-01T09:22:29;101836.97;;;18.69;50.66
58686;BME280;44465;53.206;-6.106;2023-05-01T09:24:55;101828.13;;;18.67;50.88
58686;BME280;44465;53.206;-6.106;2023-05-01T09:27:21;101832.81;;;18.58;51.39
58686;BME280;44465;53.206;-6.106;2023-05-01T09:29:47;101852.09;;;18.68;51.51
58686;BME280;44465;53.206;-6.106;2023-05-01T09:32:16;101858.06;;;18.78;51.26
58686;BME280;44465;53.206;-6.106;2023-05-01T09:34:43;101833.34;;;18.71;50.68
58686;BME280;44465;53.206;-6.106;2023-05-01T09:37:23;101843.31;;;18.65;50.82
58686;BME280;44465;53.206;-6.106;2023-05-01T09:40:04;101892.81;;;19.08;51.08
58686;BME280;44465;53.206;-6.106;2023-05-01T09:42:32;101846.94;;;18.94;50.62
58686;BME280;44465;53.206;-6.106;2023-05-01T09:44:58;101893.00;;;19.00;51.01
58686;BME280;44465;53.206;-6.106;2023-05-01T09:47:25;101839.31;;;18.80;50.64
58686;BME280;44465;53.206;-6.106;2023-05-01T09:49:53;101892.81;;;19.08;50.75
58686;BME280;44465;53.206;-6.106;2023-05-01T09:52:19;101834.81;;;18.82;50.54
58686;BME280;44465;53.206;-6.106;2023-05-01T09:54:44;101837.56;;;18.79;51.00
58686;BME280;44465;53.206;-6.106;2023-05-01T09:57:10;101834.03;;;18.78;50.63
58686;BME280;44465;53.206;-6.106;2023-05-01T09:59:36;101869.97;;;18.98;50.88
58686;BME280;44465;53.206;-6.106;2023-05-01T10:02:03;101847.28;;;18.81;51.00
58686;BME280;44465;53.206;-6.106;2023-05-01T10:04:33;101829.03;;;18.66;51.04
58686;BME280;44465;53.206;-6.106;2023-05-01T10:07:10;101854.94;;;18.94;50.93
58686;BME280;44465;53.206;-6.106;2023-05-01T10:09:37;101888.34;;;19.09;50.66
58686;BME280;44465;53.206;-6.106;2023-05-01T10:12:03;101857.63;;;18.94;50.64
58686;BME280;44465;53.206;-6.106;2023-05-01T10:14:29;101862.97;;;18.92;50.54
58686;BME280;44465;53.206;-6.106;2023-05-01T10:16:59;101880.56;;;19.01;50.79
58686;BME280;44465;53.206;-6.106;2023-05-01T10:19:25;101882.34;;;19.00;51.57
58686;BME280;44465;53.206;-6.106;2023-05-01T10:21:50;101860.56;;;17.82;51.46
58686;BME280;44465;53.206;-6.106;2023-05-01T10:24:17;101850.41;;;18.00;51.10
58686;BME280;44465;53.206;-6.106;2023-05-01T10:26:43;101841.19;;;17.39;51.25
58686;BME280;44465;53.206;-6.106;2023-05-01T10:29:09;101856.28;;;16.96;51.22
58686;BME280;44465;53.206;-6.106;2023-05-01T10:31:36;101921.44;;;17.61;51.13
58686;BME280;44465;53.206;-6.106;2023-05-01T10:34:02;101906.28;;;16.79;51.42
58686;BME280;44465;53.206;-6.106;2023-05-01T10:36:46;101894.81;;;16.77;51.78
58686;BME280;44465;53.206;-6.106;2023-05-01T10:39:33;101913.88;;;17.43;51.40
58686;BME280;44465;53.206;-6.106;2023-05-01T10:42:00;101924.63;;;17.38;50.75
58686;BME280;44465;53.206;-6.106;2023-05-01T10:44:27;101925.34;;;17.04;51.23
58686;BME280;44465;53.206;-6.106;2023-05-01T10:46:54;101919.50;;;16.85;51.87
58686;BME280;44465;53.206;-6.106;2023-05-01T10:49:19;101922.66;;;16.57;52.93
58686;BME280;44465;53.206;-6.106;2023-05-01T10:54:25;101897.25;;;17.31;51.40
58686;BME280;44465;53.206;-6.106;2023-05-01T10:56:51;101930.47;;;17.15;51.23
58686;BME280;44465;53.206;-6.106;2023-05-01T10:59:18;101887.97;;;17.09;51.56
58686;BME280;44465;53.206;-6.106;2023-05-01T11:01:45;101899.63;;;17.04;50.59
58686;BME280;44465;53.206;-6.106;2023-05-01T11:12:08;101908.09;;;17.63;52.24
58686;BME280;44465;53.206;-6.106;2023-05-01T11:15:19;101924.50;;;17.83;51.63
58686;BME280;44465;53.206;-6.106;2023-05-01T11:20:08;101925.09;;;17.96;51.89
58686;BME280;44465;53.206;-6.106;2023-05-01T11:22:35;101881.03;;;17.81;51.61
58686;BME280;44465;53.206;-6.106;2023-05-01T11:25:02;101929.06;;;18.16;52.07
58686;BME280;44465;53.206;-6.106;2023-05-01T11:27:31;101928.81;;;18.25;51.93
58686;BME280;44465;53.206;-6.106;2023-05-01T11:29:59;101902.72;;;18.04;51.28
58686;BME280;44465;53.206;-6.106;2023-05-01T11:32:28;101887.75;;;17.98;51.71
58686;BME280;44465;53.206;-6.106;2023-05-01T11:34:56;101929.00;;;18.19;50.86
58686;BME280;44465;53.206;-6.106;2023-05-01T11:37:39;101929.53;;;17.97;49.83
58686;BME280;44465;53.206;-6.106;2023-05-01T11:40:18;101925.72;;;18.08;50.20
58686;BME280;44465;53.206;-6.106;2023-05-01T11:42:45;101934.34;;;18.18;50.08
58686;BME280;44465;53.206;-6.106;2023-05-01T11:45:11;101913.94;;;18.17;49.94
58686;BME280;44465;53.206;-6.106;2023-05-01T11:47:37;101924.47;;;18.21;49.87
58686;BME280;44465;53.206;-6.106;2023-05-01T11:50:04;101898.03;;;18.13;50.35
58686;BME280;44465;53.206;-6.106;2023-05-01T11:52:40;101898.50;;;18.29;50.36
58686;BME280;44465;53.206;-6.106;2023-05-01T11:55:06;101919.50;;;18.42;50.64
58686;BME280;44465;53.206;-6.106;2023-05-01T11:57:49;101924.75;;;18.45;50.54
58686;BME280;44465;53.206;-6.106;2023-05-01T12:00:25;101913.47;;;18.35;50.05
58686;BME280;44465;53.206;-6.106;2023-05-01T12:02:58;101923.41;;;18.28;50.51
58686;BME280;44465;53.206;-6.106;2023-05-01T12:05:25;101884.66;;;18.15;49.77
58686;BME280;44465;53.206;-6.106;2023-05-01T12:07:50;101925.19;;;18.28;49.82
58686;BME280;44465;53.206;-6.106;2023-05-01T12:10:16;101936.50;;;18.38;49.98
58686;BME280;44465;53.206;-6.106;2023-05-01T12:12:42;101932.28;;;18.31;49.95
58686;BME280;44465;53.206;-6.106;2023-05-01T12:15:08;101931.53;;;18.24;49.60
58686;BME280;44465;53.206;-6.106;2023-05-01T12:17:35;101934.81;;;18.35;49.49
58686;BME280;44465;53.206;-6.106;2023-05-01T12:20:01;101917.91;;;18.35;49.87
58686;BME280;44465;53.206;-6.106;2023-05-01T12:22:27;101927.06;;;18.24;49.18
58686;BME280;44465;53.206;-6.106;2023-05-01T12:24:53;101927.56;;;18.40;48.96
58686;BME280;44465;53.206;-6.106;2023-05-01T12:27:19;101921.19;;;18.46;49.21
58686;BME280;44465;53.206;-6.106;2023-05-01T12:29:45;101901.84;;;18.38;49.27
58686;BME280;44465;53.206;-6.106;2023-05-01T12:32:15;101876.16;;;18.34;49.09
58686;BME280;44465;53.206;-6.106;2023-05-01T12:34:41;101912.00;;;18.56;49.51
58686;BME280;44465;53.206;-6.106;2023-05-01T12:37:08;101922.16;;;18.42;48.56
58686;BME280;44465;53.206;-6.106;2023-05-01T12:39:41;101888.09;;;18.20;48.91
58686;BME280;44465;53.206;-6.106;2023-05-01T12:42:13;101921.91;;;18.53;49.44
58686;BME280;44465;53.206;-6.106;2023-05-01T12:44:39;101889.53;;;18.32;49.30
58686;BME280;44465;53.206;-6.106;2023-05-01T12:47:06;101888.81;;;18.25;48.93
58686;BME280;44465;53.206;-6.106;2023-05-01T12:49:34;101919.75;;;18.33;49.01
58686;BME280;44465;53.206;-6.106;2023-05-01T12:52:06;101922.88;;;18.14;47.90
58686;BME280;44465;53.206;-6.106;2023-05-01T12:54:34;101890.22;;;18.06;47.93
58686;BME280;44465;53.206;-6.106;2023-05-01T12:57:11;101894.22;;;18.22;47.13
58686;BME280;44465;53.206;-6.106;2023-05-01T12:59:40;101888.31;;;18.11;47.58
58686;BME280;44465;53.206;-6.106;2023-05-01T13:02:10;101930.50;;;18.29;46.95
58686;BME280;44465;53.206;-6.106;2023-05-01T13:04:37;101917.31;;;17.87;46.90
58686;BME280;44465;53.206;-6.106;2023-05-01T13:07:18;101929.22;;;18.10;47.43
58686;BME280;44465;53.206;-6.106;2023-05-01T13:09:54;101930.69;;;17.84;47.26
58686;BME280;44465;53.206;-6.106;2023-05-01T13:12:20;101922.53;;;17.90;46.23
58686;BME280;44465;53.206;-6.106;2023-05-01T13:14:46;101858.00;;;17.40;47.26